New Haven, CT (06511)

2:18 PM EDT on August 18, 2017 (GMT -0400)
Rock Hill | | Change Station

Elev 128 ft 41.30 °N, 72.88 °W | Updated 3 minutes ago

Overcast
Overcast
76.6 °F
Feels Like 77 °F
N
1.0
Wind Variable Wind from WSW
Gusts 2.0 mph

Today
High -- | Low -- °F
--% Chance of Precip.
Yesterday
High -- | Low -- °F
Precip. -- in
Pressure 29.85 in
Visibility 10.0 miles
Clouds Mostly Cloudy 600 ft
Mostly Cloudy 2500 ft
Overcast 4000 ft
Heat Index 77 °F
Dew Point 75 °F
Humidity 95%
Rainfall 0.91 in
Snow Depth Not available.
6:04 AM 7:46 PM
Waning Crescent, 12% visible
METAR KHVN 181753Z 18007KT 10SM BKN006 BKN025 OVC040 26/24 A2985 RMK AO2 SLP108 60053 T02610239 10261 20233 56020
Pressure 29.85 in
Visibility 10.0 miles
Clouds Mostly Cloudy 600 ft
Mostly Cloudy 2500 ft
Overcast 4000 ft
Heat Index 77 °F
Dew Point 75 °F
Humidity 95%
Rainfall 0.91 in
Snow Depth Not available.
6:04 AM 7:46 PM
Waning Crescent, 12% visible
METAR KHVN 181753Z 18007KT 10SM BKN006 BKN025 OVC040 26/24 A2985 RMK AO2 SLP108 60053 T02610239 10261 20233 56020

Get Severe Weather Alerts

Thanks for signing up!

Be on the lookout for a verification email in your inbox.

You'll start receiving the daily forecast at 6 AM.

×

10-Day Weather Forecast

Almanac

Astronomy

Aug. 18, 2017 Rise Set
Actual Time
Civil Twilight
Nautical Twilight
Astronomical Twilight
Moon
Length of Visible Light
Length of Day
Tomorrow will be .
, % of the Moon is Illuminated

Today's Extremes

State Highs State Lows

Community

WunderPhotos

Category 6

Welcome to Category 6. This is the collective home for Weather Underground's featured writeups by Dr. Jeff Masters (right), Bob Henson (left), Chris Burt, and other regular contributors.

Nearby

Air Quality

  Air Quality AQ Index Pollutant
Not available.

Snow Depth

Station Depth Elevation

Earthquake Activity

City Distance Mag. Time & Date
Minimum magnitude displayed is 2.5.

Coastal Water Temperatures

Place Temperature

Stations

Nearby Weather Stations

Station Location Temp. Windchill Dew Point Humidity Wind Precip. Elev Updated Type
                   

Watches & Warnings

There are currently no watches in effect.